Flight Track Log - Related Links

Times and Time Zones

All times are in EDT time to prevent confusion due to time zone crossing. See the LYM1725 flight status page for this flight to view local times or setup timezone preferences in your user account.

Time Position Orientation Groundspeed Altitude Reporting Facility
EDT Latitude Longitude Course Direction KTS MPH feet Rate Location/Type
Fri 09:06:40 PM 42.9786 -108.4294 123° Southeast 189 217 10,700  Level Denver Center
Fri 09:07:42 PM 42.9528 -108.3761 123° Southeast 200 230 11,900 1,073 Climbing Denver Center
Fri 09:08:43 PM 42.9453 -108.2972 97° East 216 249 12,900 1,171 Climbing Salt Lake Center
Fri 09:09:45 PM 42.9528 -108.2106 83° East 218 251 14,300 1,463 Climbing Salt Lake Center
Fri 09:10:46 PM 42.9200 -108.1344 120° Southeast 234 269 15,900 1,525 Climbing Salt Lake Center
Fri 09:11:47 PM 42.8714 -108.0653 134° Southeast 229 264 17,400 1,024 Climbing Salt Lake Center
Fri 09:12:49 PM 42.8394 -107.9997 124° Southeast 229 264 18,000 976 Climbing Salt Lake Center
Fri 09:13:50 PM 42.7997 -107.9236 125° Southeast 238 274 19,400 1,268 Climbing Salt Lake Center
Fri 09:14:52 PM 42.7592 -107.8386 123° Southeast 239 275 20,600 780 Climbing Salt Lake Center
Fri 09:15:53 PM 42.7256 -107.7644 122° Southeast 242 278 21,000 195 Climbing Salt Lake Center
Fri 09:16:55 PM 42.6739 -107.6733 128° Southeast 269 310 21,000 -49 Level Salt Lake Center
Fri 09:17:56 PM 42.6244 -107.5958 131° Southeast 281 323 20,900 49 Descending Salt Lake Center
Fri 09:18:58 PM 42.5808 -107.5122 125° Southeast 283 326 21,100 49 Climbing Salt Lake Center
Fri 09:19:59 PM 42.5303 -107.4111 124° Southeast 289 333 21,000 -67 Descending Salt Lake Center
Fri 09:20:27 PM 42.5108 -107.3661 120° Southeast 289 333 21,000 -67 Level Denver Center
Fri 09:21:29 PM 42.4719 -107.2772 121° Southeast 287 330 20,900  Descending Denver Center
Fri 09:22:31 PM 42.4244 -107.1767 123° Southeast 285 328 21,000 49 Climbing Denver Center
Fri 09:23:32 PM 42.3858 -107.0894 121° Southeast 283 326 21,000  Level Denver Center
Fri 09:24:46 PM 42.3475 -107.0008 120° Southeast 284 327 21,000  Level Denver Center
Fri 09:25:48 PM 42.2964 -106.8853 121° Southeast 280 322 21,000  Level Denver Center
Fri 09:26:50 PM 42.2614 -106.8142 124° Southeast 284 327 21,000 -48 Level Denver Center
Fri 09:27:52 PM 42.1981 -106.7111 130° Southeast 278 320 20,900  Descending Denver Center
Fri 09:28:54 PM 42.1453 -106.6142 126° Southeast 286 329 21,000  Climbing Denver Center
Fri 09:29:55 PM 42.1064 -106.5289 122° Southeast 281 323 20,900  Descending Denver Center
Fri 09:30:57 PM 42.0697 -106.4414 119° Southeast 281 323 21,000 48 Climbing Denver Center
Fri 09:31:59 PM 42.0225 -106.3431 123° Southeast 279 321 21,000  Level Denver Center
Fri 09:33:01 PM 41.9778 -106.2603 126° Southeast 281 323 21,000  Level Denver Center
Fri 09:34:03 PM 41.9244 -106.1622 126° Southeast 287 330 21,000  Level Denver Center
Fri 09:35:05 PM 41.8814 -106.0789 125° Southeast 286 329 21,000  Level Denver Center
Fri 09:36:07 PM 41.8214 -105.9919 133° Southeast 290 334 21,000  Level Denver Center
Fri 09:37:09 PM 41.7489 -105.9506 157° South 293 337 21,000  Level Denver Center
Fri 09:38:11 PM 41.6694 -105.8944 152° Southeast 292 336 21,000  Level Denver Center
Fri 09:39:13 PM 41.5978 -105.8536 157° South 293 337 21,000  Level Denver Center
Fri 09:40:15 PM 41.5092 -105.8150 162° South 298 343 21,000 -48 Level Denver Center
Fri 09:41:17 PM 41.4364 -105.7819 161° South 294 338 20,900  Descending Denver Center
Fri 09:42:19 PM 41.3581 -105.7236 151° Southeast 289 333 21,000 49 Climbing Denver Center
Fri 09:43:20 PM 41.2975 -105.6603 142° Southeast 292 336 21,000 -439 Level Denver Center
Fri 09:44:22 PM 41.2431 -105.5850 134° Southeast 297 342 20,100 -1,161 Descending Denver Center
Fri 09:45:24 PM 41.1792 -105.4906 132° Southeast 307 353 18,600 -1,210 Descending Denver Center
Fri 09:46:26 PM 41.1231 -105.4061 131° Southeast 314 361 17,600 -1,210 Descending Denver Center
Fri 09:47:28 PM 41.0586 -105.3056 130° Southeast 317 365 16,100 -1,161 Descending Denver Center
Fri 09:48:30 PM 40.9981 -105.2106 130° Southeast 318 366 15,200 -1,065 Descending Denver Center
Fri 09:49:32 PM 40.9425 -105.1381 135° Southeast 323 372 13,900 -1,065 Descending Denver Center
Fri 09:50:34 PM 40.8747 -105.0383 132° Southeast 324 373 13,000 -435 Descending Denver Center
Fri 09:51:36 PM 40.8108 -104.9436 132° Southeast 319 367 13,000  Level Denver Center
Fri 09:52:37 PM 40.7525 -104.8703 136° Southeast 314 361 13,000  Level Denver Center
Fri 09:53:39 PM 40.6844 -104.7975 141° Southeast 301 346 13,000 -618 Level Denver Center
Fri 09:54:53 PM 40.5806 -104.7492 161° South 311 358 11,600 -882 Descending Denver Center
Fri 09:55:55 PM 40.4947 -104.7247 168° South 318 366 11,000 -242 Descending Denver Center
Fri 09:56:57 PM 40.4111 -104.7044 170° South 309 356 11,100  Climbing Denver Center
Fri 09:57:59 PM 40.3236 -104.6844 170° South 299 344 11,000 -48 Descending Denver Center
Fri 09:59:01 PM 40.2411 -104.6708 173° South 298 343 11,000  Level Denver Center
Fri 10:00:03 PM 40.1522 -104.6836 186° South 301 346 11,000  Level Denver Center
Fri 10:01:05 PM 40.0708 -104.6969 187° South 297 342 11,000  Level Denver Center
Fri 10:02:06 PM 39.9961 -104.7008 182° South 280 322 11,000  Level Denver Center
Fri 10:03:08 PM 39.9489 -104.6281 130° Southeast 264 304 11,000 -57 Level Denver Center
Fri 10:03:51 PM 39.9500 -104.5667 89° East 246 283 10,900  Descending Denver TRACON
Fri 10:04:51 PM 39.9500 -104.4833 90° East 224 258 11,000 50 Climbing Denver TRACON
Fri 10:05:51 PM 39.9333 -104.4000 105° East 224 258 11,000 -506 Level Denver TRACON
Fri 10:06:14 PM 39.9400 -104.3719 73° East 222 255 10,300 -635 Descending Denver Center
Fri 10:07:16 PM 39.9394 -104.2900 90° East 226 260 10,100 -146 Descending Denver Center
Fri 10:08:17 PM 39.8950 -104.2633 155° Southeast 231 266 10,000 -387 Descending Denver Center
Fri 10:09:20 PM 39.8725 -104.3339 247° West 200 230 9,300 -528 Descending Denver Center
Fri 10:10:22 PM 39.8750 -104.4100 272° West 197 227 8,900 -587 Descending Denver Center
Fri 10:10:52 PM 39.8833 -104.4500 285° West 201 231 8,400 -1,074 Descending Denver TRACON
Fri 10:11:57 PM 39.8833 -104.5167 270° West 149 171 7,200 -1,008 Descending Denver TRACON
Fri 10:12:57 PM 39.8833 -104.5667 270° West 139 160 6,300 -850 Descending Denver TRACON
Fri 10:13:57 PM 39.8833 -104.6167 270° West 136 157 5,500 -652 Descending Denver TRACON
Fri 10:14:29 PM 39.8769 -104.6386 249° West 134 154 5,300 -375 Descending Denver Center

Login

Don't have an account? Register now (free) for customized features, flight alerts, and more!